Time;durP1;ratioP1;P1;durP2;ratioP2;P2;SDS_P1;SDS_P2;PMS_P1;PMS_P2;Temp;Humidity;BMP_temperature;BMP_pressure;BME280_temperature;BME280_humidity;BME280_pressure;Samples;Min_cycle;Max_cycle;Signal;HPM_P1;HPM_P2
2023/04/06 00:01:48;;;;;;;9.38;8.63;;;;;;;;;;5023122;28;20203;-48
2023/04/06 00:04:13;;;;;;;8.38;7.88;;;;;;;;;;5013211;28;20042;-51
2023/04/06 00:06:38;;;;;;;8.40;7.80;;;;;;;;;;5019205;28;20206;-49
2023/04/06 00:09:04;;;;;;;8.95;8.35;;;;;;;;;;5013345;28;20080;-49
2023/04/06 00:11:29;;;;;;;8.30;7.80;;;;;;;;;;5014021;28;20451;-49
2023/04/06 00:13:55;;;;;;;8.50;7.90;;;;;;;;;;5014281;28;20124;-50
2023/04/06 00:16:20;;;;;;;8.15;7.65;;;;;;;;;;5013346;28;20033;-49
2023/04/06 00:18:45;;;;;;;7.95;7.45;;;;;;;;;;5014282;28;20099;-47
2023/04/06 00:21:12;;;;;;;7.95;7.45;;;;;;;;;;5015412;28;20120;-50
2023/04/06 00:23:38;;;;;;;8.73;8.13;;;;;;;;;;5011237;28;20045;-49
2023/04/06 00:26:03;;;;;;;8.30;7.80;;;;;;;;;;5011452;28;20038;-50
2023/04/06 00:28:29;;;;;;;8.07;7.57;;;;;;;;;;5014662;28;20668;-50
2023/04/06 00:30:55;;;;;;;8.45;7.85;;;;;;;;;;5012386;28;20075;-49
2023/04/06 00:33:22;;;;;;;10.68;9.88;;;;;;;;;;5013620;28;20364;-50
2023/04/06 00:35:47;;;;;;;9.00;8.38;;;;;;;;;;5014240;28;20414;-47
2023/04/06 00:38:14;;;;;;;9.15;8.55;;;;;;;;;;5015385;28;20034;-51
2023/04/06 00:40:39;;;;;;;8.93;8.32;;;;;;;;;;5014544;28;20038;-51
2023/04/06 00:43:11;;;;;;;9.13;8.52;;;;;;;;;;5009012;28;20045;-60
2023/04/06 00:45:38;;;;;;;10.48;9.77;;;;;;;;;;5013756;28;20067;-60
2023/04/06 00:48:04;;;;;;;8.95;8.35;;;;;;;;;;5012983;28;20037;-60
2023/04/06 00:50:30;;;;;;;8.20;7.70;;;;;;;;;;5013970;28;20037;-60
2023/04/06 00:52:55;;;;;;;8.50;8.00;;;;;;;;;;5011886;28;20037;-61
2023/04/06 00:55:21;;;;;;;9.65;8.82;;;;;;;;;;5015451;28;20207;-61
2023/04/06 00:57:47;;;;;;;8.90;8.25;;;;;;;;;;5013869;28;20124;-60
2023/04/06 01:00:13;;;;;;;8.40;7.90;;;;;;;;;;5016935;28;20052;-61
2023/04/06 01:02:39;;;;;;;9.40;8.80;;;;;;;;;;5012980;28;20038;-60
2023/04/06 01:05:04;;;;;;;9.55;8.93;;;;;;;;;;5014937;28;20885;-61
2023/04/06 01:07:30;;;;;;;9.05;8.43;;;;;;;;;;5014078;28;20046;-61
2023/04/06 01:09:55;;;;;;;9.80;9.10;;;;;;;;;;5013006;28;20084;-60
2023/04/06 01:12:21;;;;;;;9.15;8.55;;;;;;;;;;5013467;28;20472;-60
2023/04/06 01:14:46;;;;;;;8.90;8.30;;;;;;;;;;5011830;28;20053;-60
2023/04/06 01:17:11;;;;;;;8.05;7.55;;;;;;;;;;5012694;28;20048;-60
2023/04/06 01:19:37;;;;;;;9.20;8.60;;;;;;;;;;5011894;28;20069;-60
2023/04/06 01:22:02;;;;;;;8.30;7.80;;;;;;;;;;5012524;28;20247;-60
2023/04/06 01:24:27;;;;;;;8.77;8.18;;;;;;;;;;5021376;28;20099;-60
2023/04/06 01:26:53;;;;;;;9.00;8.40;;;;;;;;;;5012525;28;20103;-60
2023/04/06 01:29:18;;;;;;;8.68;8.02;;;;;;;;;;5014844;28;20033;-59
2023/04/06 01:31:44;;;;;;;9.98;9.38;;;;;;;;;;5013138;28;20379;-60
2023/04/06 01:34:09;;;;;;;9.00;8.40;;;;;;;;;;5015400;28;20037;-60
2023/04/06 01:36:35;;;;;;;8.93;8.32;;;;;;;;;;5015783;28;20049;-60
2023/04/06 01:39:00;;;;;;;13.48;8.38;;;;;;;;;;5014002;28;20148;-59
2023/04/06 01:41:26;;;;;;;8.73;8.15;;;;;;;;;;5009170;28;20030;-59
2023/04/06 01:43:54;;;;;;;8.77;8.18;;;;;;;;;;5012313;28;20583;-60
2023/04/06 01:46:20;;;;;;;9.52;8.85;;;;;;;;;;5012576;28;20042;-60
2023/04/06 01:48:45;;;;;;;8.00;7.50;;;;;;;;;;5011172;28;20700;-60
2023/04/06 01:51:11;;;;;;;10.15;9.43;;;;;;;;;;5011492;28;20090;-60
2023/04/06 01:53:36;;;;;;;9.65;8.98;;;;;;;;;;5011529;28;20079;-60
2023/04/06 01:56:01;;;;;;;8.85;8.25;;;;;;;;;;5015002;28;20036;-60
2023/04/06 01:58:27;;;;;;;8.85;8.25;;;;;;;;;;5013646;28;20049;-61
2023/04/06 02:00:52;;;;;;;8.75;8.15;;;;;;;;;;5010730;28;20072;-60
2023/04/06 02:03:17;;;;;;;9.13;8.52;;;;;;;;;;5012915;28;20040;-60
2023/04/06 02:05:43;;;;;;;8.68;8.05;;;;;;;;;;5013531;28;20526;-60
2023/04/06 02:08:08;;;;;;;8.05;7.55;;;;;;;;;;5019403;28;20033;-60
2023/04/06 02:10:34;;;;;;;8.82;8.23;;;;;;;;;;5012635;28;20030;-62
2023/04/06 02:13:00;;;;;;;9.13;8.43;;;;;;;;;;5010374;28;20056;-61
2023/04/06 02:15:26;;;;;;;8.25;7.75;;;;;;;;;;5012453;28;20037;-60
2023/04/06 02:17:52;;;;;;;9.40;8.80;;;;;;;;;;5016103;28;20033;-60
2023/04/06 02:20:18;;;;;;;9.68;9.07;;;;;;;;;;5012622;28;20033;-60
2023/04/06 02:22:43;;;;;;;8.95;8.35;;;;;;;;;;5016370;28;20033;-60
2023/04/06 02:25:09;;;;;;;8.68;8.07;;;;;;;;;;5010044;28;20052;-60
2023/04/06 02:27:35;;;;;;;8.70;8.10;;;;;;;;;;5016004;28;20048;-60
2023/04/06 02:30:02;;;;;;;9.77;9.07;;;;;;;;;;5007060;28;20034;-60
2023/04/06 02:32:27;;;;;;;9.43;8.82;;;;;;;;;;5011484;28;20081;-60
2023/04/06 02:34:53;;;;;;;9.93;9.32;;;;;;;;;;5010145;28;20673;-59
2023/04/06 02:37:18;;;;;;;9.23;8.63;;;;;;;;;;5012976;28;20037;-60
2023/04/06 02:39:43;;;;;;;9.00;8.40;;;;;;;;;;5014974;28;20031;-59
2023/04/06 02:42:09;;;;;;;9.88;9.27;;;;;;;;;;5007681;28;20033;-60
2023/04/06 02:44:35;;;;;;;10.05;9.45;;;;;;;;;;5008158;28;20375;-59
2023/04/06 02:47:00;;;;;;;10.18;9.52;;;;;;;;;;5012711;28;20112;-60
2023/04/06 02:49:25;;;;;;;9.57;8.98;;;;;;;;;;5010834;28;20118;-60
2023/04/06 02:51:51;;;;;;;10.30;9.70;;;;;;;;;;5011184;28;20033;-60
2023/04/06 02:54:16;;;;;;;9.32;8.73;;;;;;;;;;5013951;28;20037;-60
2023/04/06 02:56:41;;;;;;;9.57;8.88;;;;;;;;;;5010211;28;20037;-60
2023/04/06 02:59:07;;;;;;;10.85;10.10;;;;;;;;;;5009423;28;20889;-61
2023/04/06 03:01:32;;;;;;;9.75;9.15;;;;;;;;;;5015224;28;20423;-61
2023/04/06 03:03:57;;;;;;;9.68;9.07;;;;;;;;;;5011683;28;20064;-60
2023/04/06 03:06:23;;;;;;;9.35;8.75;;;;;;;;;;5012772;28;20124;-59
2023/04/06 03:08:48;;;;;;;9.27;8.65;;;;;;;;;;5010179;28;20423;-59
2023/04/06 03:11:13;;;;;;;9.93;9.32;;;;;;;;;;5010675;28;20625;-59
2023/04/06 03:13:39;;;;;;;10.15;9.55;;;;;;;;;;5012194;28;20064;-59
2023/04/06 03:16:05;;;;;;;9.85;9.15;;;;;;;;;;5013644;28;20034;-59
2023/04/06 03:18:32;;;;;;;10.40;9.50;;;;;;;;;;5009952;28;20049;-60
2023/04/06 03:20:58;;;;;;;10.90;10.20;;;;;;;;;;5014596;28;20451;-59
2023/04/06 03:23:23;;;;;;;9.75;9.15;;;;;;;;;;5011425;28;20033;-59
2023/04/06 03:25:48;;;;;;;10.60;9.80;;;;;;;;;;5015659;28;20061;-51
2023/04/06 03:28:14;;;;;;;10.52;9.93;;;;;;;;;;5012983;28;20463;-48
2023/04/06 03:30:40;;;;;;;10.32;9.68;;;;;;;;;;5011329;28;20042;-47
2023/04/06 03:33:05;;;;;;;11.43;10.73;;;;;;;;;;5013091;28;20053;-59
2023/04/06 03:35:30;;;;;;;9.93;9.30;;;;;;;;;;5013614;28;20026;-59
2023/04/06 03:37:56;;;;;;;9.38;8.77;;;;;;;;;;5012023;28;20029;-59
2023/04/06 03:40:21;;;;;;;9.98;9.38;;;;;;;;;;5010274;28;20048;-61
2023/04/06 03:42:46;;;;;;;9.65;9.05;;;;;;;;;;5011993;28;20063;-60
2023/04/06 03:45:15;;;;;;;11.05;10.35;;;;;;;;;;5012605;28;20850;-60
2023/04/06 03:47:40;;;;;;;11.23;10.52;;;;;;;;;;5013158;28;20033;-59
2023/04/06 03:50:06;;;;;;;11.82;11.02;;;;;;;;;;5009672;28;20030;-60
2023/04/06 03:52:31;;;;;;;10.38;9.77;;;;;;;;;;5012153;28;20033;-48
2023/04/06 03:54:57;;;;;;;11.27;10.45;;;;;;;;;;5014239;28;20045;-48
2023/04/06 03:57:22;;;;;;;11.25;10.55;;;;;;;;;;5012089;28;20033;-48
2023/04/06 03:59:47;;;;;;;12.38;11.57;;;;;;;;;;5010216;28;20435;-48
2023/04/06 04:02:13;;;;;;;11.77;10.95;;;;;;;;;;5011438;28;20717;-49
2023/04/06 04:04:38;;;;;;;12.63;11.85;;;;;;;;;;5013596;28;20425;-48
2023/04/06 04:07:03;;;;;;;11.52;10.73;;;;;;;;;;5015805;28;20030;-48
2023/04/06 04:09:29;;;;;;;10.48;9.85;;;;;;;;;;5012119;28;20475;-48
2023/04/06 04:11:54;;;;;;;10.52;9.85;;;;;;;;;;5016533;28;20692;-50
2023/04/06 04:14:19;;;;;;;11.07;10.32;;;;;;;;;;5017070;28;20141;-48
2023/04/06 04:16:45;;;;;;;11.07;10.30;;;;;;;;;;5016446;28;20063;-47
2023/04/06 04:19:10;;;;;;;10.48;9.40;;;;;;;;;;5015332;28;20037;-48
2023/04/06 04:21:44;;;;;;;9.82;9.15;;;;;;;;;;5015004;28;20108;-48
2023/04/06 04:24:10;;;;;;;10.13;9.52;;;;;;;;;;5018197;28;20390;-47
2023/04/06 04:26:35;;;;;;;10.98;10.27;;;;;;;;;;5015329;28;20033;-48
2023/04/06 04:29:01;;;;;;;10.07;9.48;;;;;;;;;;5014567;28;20551;-46
2023/04/06 04:31:26;;;;;;;11.00;10.30;;;;;;;;;;5013008;28;20196;-47
2023/04/06 04:33:51;;;;;;;9.98;9.38;;;;;;;;;;5013217;28;20049;-51
2023/04/06 04:36:17;;;;;;;10.35;9.75;;;;;;;;;;5016976;28;20047;-49
2023/04/06 04:38:42;;;;;;;9.52;8.93;;;;;;;;;;5016055;28;20073;-49
2023/04/06 04:41:07;;;;;;;10.77;10.10;;;;;;;;;;5013519;28;20044;-47
2023/04/06 04:43:33;;;;;;;9.90;9.30;;;;;;;;;;5013824;28;20030;-49
2023/04/06 04:45:59;;;;;;;9.73;9.13;;;;;;;;;;5013844;28;20042;-48
2023/04/06 04:48:25;;;;;;;9.82;9.23;;;;;;;;;;5011884;28;20049;-48
2023/04/06 04:50:50;;;;;;;9.73;9.13;;;;;;;;;;5015823;28;20037;-49
2023/04/06 04:53:15;;;;;;;10.88;10.18;;;;;;;;;;5016038;28;20471;-47
2023/04/06 04:55:41;;;;;;;11.02;10.32;;;;;;;;;;5015118;28;20041;-48
2023/04/06 04:58:08;;;;;;;9.98;9.38;;;;;;;;;;5011670;28;20120;-47
2023/04/06 05:00:34;;;;;;;11.00;10.27;;;;;;;;;;5012296;28;20685;-49
2023/04/06 05:02:59;;;;;;;12.57;11.65;;;;;;;;;;5012756;28;20033;-59
2023/04/06 05:05:25;;;;;;;14.32;11.40;;;;;;;;;;5016336;28;20030;-60
2023/04/06 05:07:50;;;;;;;10.32;9.63;;;;;;;;;;5013711;28;20048;-59
2023/04/06 05:10:16;;;;;;;9.95;9.30;;;;;;;;;;5017100;28;20041;-60
2023/04/06 05:12:41;;;;;;;9.77;9.18;;;;;;;;;;5014325;28;20055;-59
2023/04/06 05:15:07;;;;;;;10.10;9.50;;;;;;;;;;5011901;28;20137;-60
2023/04/06 05:17:33;;;;;;;10.90;10.10;;;;;;;;;;5008670;28;20707;-60
2023/04/06 05:19:58;;;;;;;9.85;9.05;;;;;;;;;;5012173;28;20113;-60
2023/04/06 05:22:24;;;;;;;11.38;10.57;;;;;;;;;;5015145;28;20434;-60
2023/04/06 05:24:49;;;;;;;9.07;8.48;;;;;;;;;;5013755;28;20208;-59
2023/04/06 05:27:15;;;;;;;11.50;10.80;;;;;;;;;;5011427;28;20037;-60
2023/04/06 05:29:40;;;;;;;10.40;9.80;;;;;;;;;;5013521;28;20420;-59
2023/04/06 05:32:06;;;;;;;9.55;8.95;;;;;;;;;;5012072;28;20029;-59
2023/04/06 05:34:31;;;;;;;9.68;9.05;;;;;;;;;;5010652;28;20037;-60
2023/04/06 05:36:57;;;;;;;10.38;9.73;;;;;;;;;;5016400;28;20116;-63
2023/04/06 05:39:22;;;;;;;10.32;9.52;;;;;;;;;;5014181;28;20048;-61
2023/04/06 05:41:49;;;;;;;9.23;8.63;;;;;;;;;;5012307;28;20138;-60
2023/04/06 05:44:14;;;;;;;10.50;9.73;;;;;;;;;;5013548;28;20029;-61
2023/04/06 05:46:40;;;;;;;12.07;10.90;;;;;;;;;;5012333;28;20365;-62
2023/04/06 05:49:05;;;;;;;8.88;8.27;;;;;;;;;;5015312;28;20080;-60
2023/04/06 05:51:31;;;;;;;8.90;8.30;;;;;;;;;;5013954;28;20108;-64
2023/04/06 05:53:57;;;;;;;9.02;8.43;;;;;;;;;;5015275;28;20467;-61
2023/04/06 05:56:23;;;;;;;9.00;8.30;;;;;;;;;;5013078;28;20060;-60
2023/04/06 05:58:49;;;;;;;9.10;8.48;;;;;;;;;;5012236;28;20031;-63
2023/04/06 06:01:15;;;;;;;10.20;9.50;;;;;;;;;;5016384;28;20095;-61
2023/04/06 06:03:40;;;;;;;8.68;8.07;;;;;;;;;;5016215;28;20029;-60
2023/04/06 06:06:05;;;;;;;8.50;8.00;;;;;;;;;;5013822;28;20029;-60
2023/04/06 06:08:31;;;;;;;8.23;7.72;;;;;;;;;;5012620;28;20053;-60
2023/04/06 06:10:56;;;;;;;8.57;8.05;;;;;;;;;;5011274;28;20044;-60
2023/04/06 06:13:23;;;;;;;10.43;9.70;;;;;;;;;;5015242;28;20658;-59
2023/04/06 06:15:49;;;;;;;10.38;9.60;;;;;;;;;;5013911;28;20026;-60
2023/04/06 06:18:14;;;;;;;13.48;12.15;;;;;;;;;;5011818;28;20044;-60
2023/04/06 06:20:40;;;;;;;9.90;9.20;;;;;;;;;;5012092;28;20472;-60
2023/04/06 06:23:05;;;;;;;9.63;8.90;;;;;;;;;;5014077;28;20126;-60
2023/04/06 06:25:32;;;;;;;10.05;9.35;;;;;;;;;;5010858;28;20030;-59
2023/04/06 06:27:58;;;;;;;8.90;8.30;;;;;;;;;;5014459;28;20318;-59
2023/04/06 06:30:24;;;;;;;10.68;9.98;;;;;;;;;;5009607;28;20636;-59
2023/04/06 06:32:50;;;;;;;10.40;9.43;;;;;;;;;;5011986;28;20118;-60
2023/04/06 06:35:15;;;;;;;10.13;9.45;;;;;;;;;;5011265;28;20567;-59
2023/04/06 06:37:41;;;;;;;10.98;10.18;;;;;;;;;;5016023;28;20049;-59
2023/04/06 06:40:09;;;;;;;9.05;8.45;;;;;;;;;;5012160;28;20649;-60
2023/04/06 06:42:34;;;;;;;10.05;9.38;;;;;;;;;;5011878;28;20087;-60
2023/04/06 06:44:59;;;;;;;8.43;7.90;;;;;;;;;;5012087;28;20471;-59
2023/04/06 06:47:26;;;;;;;8.73;8.13;;;;;;;;;;5010125;28;20117;-59
2023/04/06 06:49:51;;;;;;;8.85;8.25;;;;;;;;;;5013175;28;20034;-59
2023/04/06 06:52:17;;;;;;;9.32;8.73;;;;;;;;;;5012380;28;20046;-60
2023/04/06 06:54:43;;;;;;;9.25;8.65;;;;;;;;;;5010437;28;20034;-60
2023/04/06 06:57:08;;;;;;;9.77;9.18;;;;;;;;;;5012999;28;20180;-60
2023/04/06 06:59:33;;;;;;;10.48;9.88;;;;;;;;;;5013570;28;20376;-60
2023/04/06 07:01:59;;;;;;;11.10;10.32;;;;;;;;;;5013653;28;20036;-60
2023/04/06 07:04:24;;;;;;;10.00;9.30;;;;;;;;;;5014164;28;20657;-60
2023/04/06 07:06:50;;;;;;;9.70;9.10;;;;;;;;;;5014642;28;20069;-61
2023/04/06 07:09:16;;;;;;;10.55;9.90;;;;;;;;;;5013569;28;20041;-60
2023/04/06 07:11:41;;;;;;;10.95;9.77;;;;;;;;;;5012211;28;20033;-59
2023/04/06 07:14:06;;;;;;;11.23;10.43;;;;;;;;;;5013322;28;20144;-59
2023/04/06 07:16:32;;;;;;;11.05;10.25;;;;;;;;;;5012847;28;20061;-59
2023/04/06 07:18:57;;;;;;;9.82;9.23;;;;;;;;;;5012747;28;20039;-59
2023/04/06 07:21:23;;;;;;;10.68;9.98;;;;;;;;;;5014024;28;20106;-60
2023/04/06 07:23:48;;;;;;;9.75;9.10;;;;;;;;;;5012392;28;20029;-61
2023/04/06 07:26:14;;;;;;;11.27;10.57;;;;;;;;;;5013130;28;20048;-60
2023/04/06 07:28:39;;;;;;;12.23;11.43;;;;;;;;;;5017176;28;20061;-60
2023/04/06 07:31:05;;;;;;;11.25;10.40;;;;;;;;;;5011445;28;20029;-61
2023/04/06 07:33:30;;;;;;;12.13;11.13;;;;;;;;;;5016162;28;20041;-60
2023/04/06 07:35:57;;;;;;;12.77;11.90;;;;;;;;;;5012112;28;20544;-60
2023/04/06 07:38:22;;;;;;;12.27;11.48;;;;;;;;;;5013670;28;20045;-60
2023/04/06 07:40:47;;;;;;;13.05;12.15;;;;;;;;;;5017443;28;20407;-61
2023/04/06 07:43:13;;;;;;;12.02;11.32;;;;;;;;;;5013486;28;20368;-60
2023/04/06 07:45:38;;;;;;;12.57;11.77;;;;;;;;;;5012755;28;20034;-60
2023/04/06 07:48:04;;;;;;;14.63;13.63;;;;;;;;;;5013488;28;20069;-59
2023/04/06 07:50:29;;;;;;;14.00;13.10;;;;;;;;;;5015118;28;20401;-61
2023/04/06 07:52:54;;;;;;;13.68;12.77;;;;;;;;;;5014107;28;20030;-61
2023/04/06 07:55:20;;;;;;;13.60;12.80;;;;;;;;;;5015287;28;20066;-60
2023/04/06 07:57:45;;;;;;;13.00;12.20;;;;;;;;;;5016486;28;20632;-60
2023/04/06 08:00:11;;;;;;;14.20;13.10;;;;;;;;;;5016745;28;20038;-60
2023/04/06 08:02:36;;;;;;;15.35;14.35;;;;;;;;;;5013424;28;20529;-60
2023/04/06 08:05:02;;;;;;;14.45;13.40;;;;;;;;;;5016616;28;20132;-60
2023/04/06 08:07:27;;;;;;;13.90;13.10;;;;;;;;;;5019748;28;20048;-60
2023/04/06 08:09:53;;;;;;;14.38;13.38;;;;;;;;;;5015952;28;20481;-60
2023/04/06 08:12:18;;;;;;;13.35;12.45;;;;;;;;;;5015964;28;20705;-59
2023/04/06 08:14:43;;;;;;;13.20;12.40;;;;;;;;;;5017001;28;20480;-60
2023/04/06 08:17:09;;;;;;;13.95;12.95;;;;;;;;;;5018183;28;20553;-61
2023/04/06 08:19:35;;;;;;;14.13;13.27;;;;;;;;;;5014650;28;20080;-61
2023/04/06 08:22:00;;;;;;;14.25;13.35;;;;;;;;;;5015945;28;20061;-61
2023/04/06 08:24:25;;;;;;;14.02;13.13;;;;;;;;;;5013723;28;20490;-61
2023/04/06 08:26:51;;;;;;;14.00;13.10;;;;;;;;;;5013890;28;20530;-61
2023/04/06 08:29:17;;;;;;;14.48;13.38;;;;;;;;;;5013990;28;20037;-62
2023/04/06 08:31:43;;;;;;;13.48;12.57;;;;;;;;;;5016585;28;20030;-61
2023/04/06 08:34:08;;;;;;;12.70;11.90;;;;;;;;;;5014876;28;20447;-62
2023/04/06 08:36:33;;;;;;;14.77;12.77;;;;;;;;;;5016932;28;20030;-62
2023/04/06 08:39:00;;;;;;;12.60;11.80;;;;;;;;;;5015091;28;20658;-62
2023/04/06 08:41:27;;;;;;;14.68;13.80;;;;;;;;;;5016444;28;20034;-62
2023/04/06 08:43:57;;;;;;;13.63;12.63;;;;;;;;;;5002538;28;20136;-61
2023/04/06 08:46:29;;;;;;;13.45;12.65;;;;;;;;;;5015373;28;20052;-61
2023/04/06 08:48:55;;;;;;;14.40;13.30;;;;;;;;;;5020856;28;20061;-62
2023/04/06 08:51:26;;;;;;;18.38;14.65;;;;;;;;;;5013823;28;20384;-62
2023/04/06 08:53:56;;;;;;;15.88;14.88;;;;;;;;;;5018294;28;20036;-61
2023/04/06 08:56:22;;;;;;;16.25;15.25;;;;;;;;;;5010320;28;20052;-62
2023/04/06 08:58:50;;;;;;;16.65;15.65;;;;;;;;;;5008606;28;20041;-60
2023/04/06 09:01:20;;;;;;;17.35;16.35;;;;;;;;;;5014504;28;20048;-62
2023/04/06 09:03:46;;;;;;;17.85;16.85;;;;;;;;;;5012399;28;20608;-62
2023/04/06 09:06:13;;;;;;;17.17;16.17;;;;;;;;;;5014539;28;20037;-62
2023/04/06 09:08:40;;;;;;;16.13;15.15;;;;;;;;;;5013562;28;20605;-62
2023/04/06 09:11:05;;;;;;;16.70;15.70;;;;;;;;;;5020350;28;20451;-62
2023/04/06 09:13:31;;;;;;;17.67;16.58;;;;;;;;;;5009858;28;20072;-62
2023/04/06 09:16:04;;;;;;;17.17;16.15;;;;;;;;;;5012755;28;20037;-62
2023/04/06 09:18:31;;;;;;;16.88;15.88;;;;;;;;;;5010683;28;20530;-61
2023/04/06 09:21:02;;;;;;;19.33;18.15;;;;;;;;;;5012913;28;20100;-60
2023/04/06 09:23:27;;;;;;;19.17;17.98;;;;;;;;;;5015146;28;20037;-61
2023/04/06 09:26:07;;;;;;;19.77;18.58;;;;;;;;;;5012983;28;20029;-60
2023/04/06 09:28:49;;;;;;;21.15;19.80;;;;;;;;;;5014337;28;20034;-61
2023/04/06 09:31:17;;;;;;;18.50;17.40;;;;;;;;;;5011449;28;20123;-60
2023/04/06 09:33:44;;;;;;;20.15;18.95;;;;;;;;;;5013789;28;20033;-60
2023/04/06 09:36:10;;;;;;;20.42;19.23;;;;;;;;;;5011930;28;20045;-61
2023/04/06 09:38:50;;;;;;;20.40;18.83;;;;;;;;;;5013638;28;20030;-61
2023/04/06 09:41:21;;;;;;;16.20;15.30;;;;;;;;;;5014659;28;20121;-62
2023/04/06 09:43:47;;;;;;;18.05;16.95;;;;;;;;;;5015726;28;20033;-61
2023/04/06 09:46:12;;;;;;;19.02;17.80;;;;;;;;;;5013668;28;20117;-61
2023/04/06 09:48:38;;;;;;;15.35;14.43;;;;;;;;;;5010347;28;20029;-60
2023/04/06 09:51:06;;;;;;;17.30;16.25;;;;;;;;;;5014682;28;20038;-60
2023/04/06 09:53:36;;;;;;;14.35;13.45;;;;;;;;;;5011763;28;20053;-61
2023/04/06 09:56:03;;;;;;;14.93;13.93;;;;;;;;;;5012501;28;20037;-60
2023/04/06 09:58:34;;;;;;;15.23;14.32;;;;;;;;;;5015587;28;20049;-60
2023/04/06 10:01:07;;;;;;;14.55;13.63;;;;;;;;;;5012816;28;20041;-60
2023/04/06 10:04:00;;;;;;;13.68;12.88;;;;;;;;;;5012327;28;20045;-60
2023/04/06 10:06:28;;;;;;;14.52;13.63;;;;;;;;;;5013061;28;20042;-61
2023/04/06 10:08:56;;;;;;;15.73;14.75;;;;;;;;;;5015084;28;20363;-61
2023/04/06 10:11:22;;;;;;;15.38;14.38;;;;;;;;;;5008356;28;20029;-61
2023/04/06 10:13:48;;;;;;;14.38;13.38;;;;;;;;;;5011720;28;20092;-61
2023/04/06 10:16:15;;;;;;;14.90;13.80;;;;;;;;;;5011894;28;20045;-61
2023/04/06 10:18:46;;;;;;;15.15;14.15;;;;;;;;;;5012871;28;20041;-60
2023/04/06 10:21:14;;;;;;;16.60;15.50;;;;;;;;;;5011370;28;20458;-60
2023/04/06 10:23:52;;;;;;;16.02;15.02;;;;;;;;;;4999793;28;20161;-61
2023/04/06 10:26:20;;;;;;;17.13;16.02;;;;;;;;;;5012204;28;20033;-61
2023/04/06 10:28:47;;;;;;;15.95;14.73;;;;;;;;;;5014246;28;20034;-60
2023/04/06 10:31:13;;;;;;;17.02;15.88;;;;;;;;;;5015005;28;20471;-61
2023/04/06 10:33:40;;;;;;;16.45;15.27;;;;;;;;;;5014332;28;20037;-60
2023/04/06 10:36:22;;;;;;;16.05;15.10;;;;;;;;;;5013032;28;20037;-61
2023/04/06 10:38:54;;;;;;;16.08;15.13;;;;;;;;;;5014376;28;20033;-61
2023/04/06 10:41:20;;;;;;;15.88;14.98;;;;;;;;;;5009793;28;20503;-61
2023/04/06 10:43:55;;;;;;;18.42;17.33;;;;;;;;;;5013794;28;20065;-61
2023/04/06 10:46:32;;;;;;;15.73;14.73;;;;;;;;;;5012392;28;20042;-61
2023/04/06 10:48:57;;;;;;;15.95;14.98;;;;;;;;;;5010797;28;20033;-61
2023/04/06 10:51:28;;;;;;;17.33;16.23;;;;;;;;;;5012079;28;20476;-63
2023/04/06 10:53:54;;;;;;;17.17;15.90;;;;;;;;;;5014116;28;20034;-61
2023/04/06 10:56:26;;;;;;;16.95;15.85;;;;;;;;;;5013169;28;20119;-62
2023/04/06 10:58:55;;;;;;;17.52;16.33;;;;;;;;;;5011944;28;20044;-61
2023/04/06 11:01:22;;;;;;;17.58;16.30;;;;;;;;;;5013218;28;20108;-61
2023/04/06 11:03:52;;;;;;;18.52;17.42;;;;;;;;;;5012935;28;20044;-61
2023/04/06 11:06:18;;;;;;;18.17;17.08;;;;;;;;;;5012472;28;20051;-61
2023/04/06 11:08:44;;;;;;;16.92;15.88;;;;;;;;;;5011273;28;20061;-62
2023/04/06 11:11:21;;;;;;;18.15;17.10;;;;;;;;;;5009069;28;20072;-63
2023/04/06 11:13:50;;;;;;;17.52;16.45;;;;;;;;;;5015994;28;20053;-63
2023/04/06 11:16:17;;;;;;;19.92;18.50;;;;;;;;;;5017314;28;20030;-62
2023/04/06 11:18:55;;;;;;;18.13;17.02;;;;;;;;;;5017114;28;20041;-62
2023/04/06 11:21:36;;;;;;;17.50;16.50;;;;;;;;;;5012010;28;20057;-63
2023/04/06 11:24:13;;;;;;;16.67;15.68;;;;;;;;;;5019386;28;20041;-64
2023/04/06 11:26:48;;;;;;;17.77;16.77;;;;;;;;;;5021329;28;20038;-64
2023/04/06 11:29:15;;;;;;;20.42;19.23;;;;;;;;;;5014795;28;20117;-64
2023/04/06 11:31:49;;;;;;;17.98;16.88;;;;;;;;;;5014936;28;20038;-64
2023/04/06 11:34:20;;;;;;;20.10;18.80;;;;;;;;;;5015734;28;20048;-62
2023/04/06 11:36:48;;;;;;;19.85;18.45;;;;;;;;;;5018108;28;20029;-61
2023/04/06 11:39:19;;;;;;;19.80;18.60;;;;;;;;;;5015505;28;20037;-62
2023/04/06 11:41:53;;;;;;;19.70;18.52;;;;;;;;;;5014283;28;20088;-62
2023/04/06 11:44:38;;;;;;;21.60;20.27;;;;;;;;;;5014813;28;20052;-62
2023/04/06 11:47:06;;;;;;;20.63;19.33;;;;;;;;;;5015086;28;20053;-62
2023/04/06 11:49:33;;;;;;;20.35;19.05;;;;;;;;;;5019856;28;20041;-62
2023/04/06 11:52:00;;;;;;;20.48;19.27;;;;;;;;;;5019116;28;20328;-62
2023/04/06 11:54:33;;;;;;;19.60;18.30;;;;;;;;;;5014380;28;20033;-62
2023/04/06 11:56:58;;;;;;;18.88;17.77;;;;;;;;;;5002196;28;20516;-63
2023/04/06 11:59:24;;;;;;;19.13;17.98;;;;;;;;;;5020398;28;20171;-65
2023/04/06 12:01:49;;;;;;;19.80;18.67;;;;;;;;;;5016394;28;20095;-64
2023/04/06 12:04:14;;;;;;;19.98;18.67;;;;;;;;;;5020072;28;20890;-52
2023/04/06 12:06:40;;;;;;;18.77;17.60;;;;;;;;;;5018091;28;20577;-63
2023/04/06 12:09:05;;;;;;;18.15;16.95;;;;;;;;;;5015962;28;20042;-52
2023/04/06 12:11:31;;;;;;;20.02;18.80;;;;;;;;;;5016030;28;20060;-63
2023/04/06 12:13:56;;;;;;;20.00;18.77;;;;;;;;;;5015650;28;20029;-62
2023/04/06 12:16:21;;;;;;;18.80;17.63;;;;;;;;;;5017126;28;20037;-62
2023/04/06 12:18:47;;;;;;;18.15;16.70;;;;;;;;;;5014125;28;20574;-64
2023/04/06 12:21:12;;;;;;;16.73;15.63;;;;;;;;;;5011737;28;20807;-63
2023/04/06 12:23:37;;;;;;;17.30;16.08;;;;;;;;;;5011122;28;20049;-63
2023/04/06 12:26:03;;;;;;;17.35;16.33;;;;;;;;;;5012907;28;20041;-63
2023/04/06 12:28:28;;;;;;;18.75;17.65;;;;;;;;;;5010306;28;20038;-63
2023/04/06 12:30:55;;;;;;;16.40;15.50;;;;;;;;;;5013011;28;20034;-62
2023/04/06 12:33:21;;;;;;;19.20;18.10;;;;;;;;;;5015531;28;20120;-62
2023/04/06 12:35:46;;;;;;;18.27;17.13;;;;;;;;;;5014663;28;20463;-62
2023/04/06 12:38:12;;;;;;;19.00;17.80;;;;;;;;;;5015543;28;20080;-62
2023/04/06 12:40:38;;;;;;;16.20;15.27;;;;;;;;;;5014487;28;20041;-62
2023/04/06 12:43:04;;;;;;;17.25;16.17;;;;;;;;;;5013511;28;20105;-62
2023/04/06 12:45:30;;;;;;;16.80;15.70;;;;;;;;;;5014129;28;20033;-62
2023/04/06 12:47:56;;;;;;;16.60;15.60;;;;;;;;;;5015209;28;20180;-62
2023/04/06 12:50:21;;;;;;;17.08;16.08;;;;;;;;;;5011520;28;20602;-63
2023/04/06 12:52:47;;;;;;;16.75;15.75;;;;;;;;;;5013480;28;20099;-63
2023/04/06 12:55:12;;;;;;;17.02;16.02;;;;;;;;;;5022878;28;20087;-63
2023/04/06 12:57:38;;;;;;;15.65;14.65;;;;;;;;;;5016174;28;20055;-63
2023/04/06 13:00:05;;;;;;;15.73;14.75;;;;;;;;;;5015767;28;20043;-62
2023/04/06 13:02:30;;;;;;;16.42;15.43;;;;;;;;;;5021186;28;20116;-63
2023/04/06 13:04:55;;;;;;;17.58;16.58;;;;;;;;;;5013844;28;20100;-62
2023/04/06 13:07:21;;;;;;;16.63;15.63;;;;;;;;;;5016421;28;20748;-61
2023/04/06 13:09:49;;;;;;;16.30;15.38;;;;;;;;;;5016033;28;20113;-64
2023/04/06 13:12:14;;;;;;;16.13;15.13;;;;;;;;;;5015205;28;20041;-61
2023/04/06 13:14:40;;;;;;;16.92;15.82;;;;;;;;;;5014446;28;20087;-61
2023/04/06 13:17:06;;;;;;;15.95;15.00;;;;;;;;;;5012071;28;20037;-61
2023/04/06 13:19:32;;;;;;;16.25;15.35;;;;;;;;;;5015812;28;20041;-63
2023/04/06 13:21:57;;;;;;;15.73;14.63;;;;;;;;;;5015192;28;20037;-62
2023/04/06 13:24:23;;;;;;;16.33;15.32;;;;;;;;;;5013920;28;20048;-63
2023/04/06 13:26:49;;;;;;;15.57;14.68;;;;;;;;;;5014842;28;20355;-63
2023/04/06 13:29:14;;;;;;;15.93;15.02;;;;;;;;;;5014328;28;20049;-61
2023/04/06 13:31:40;;;;;;;18.13;17.08;;;;;;;;;;5011943;28;20026;-61
2023/04/06 13:34:05;;;;;;;17.98;16.92;;;;;;;;;;5014582;28;20042;-61
2023/04/06 13:36:32;;;;;;;17.40;16.30;;;;;;;;;;5020469;28;20287;-61
2023/04/06 13:38:57;;;;;;;17.42;16.35;;;;;;;;;;5015538;28;20339;-61
2023/04/06 13:41:25;;;;;;;18.58;17.48;;;;;;;;;;5014332;28;20045;-61
2023/04/06 13:43:51;;;;;;;14.82;13.93;;;;;;;;;;5018346;28;20112;-63
2023/04/06 13:46:16;;;;;;;18.15;16.95;;;;;;;;;;5015182;28;20040;-61
2023/04/06 13:48:42;;;;;;;17.80;16.80;;;;;;;;;;5014226;28;20075;-61
2023/04/06 13:51:12;;;;;;;17.00;15.90;;;;;;;;;;5015473;28;20033;-52
2023/04/06 13:53:39;;;;;;;15.93;15.02;;;;;;;;;;5021759;28;20030;-53
2023/04/06 13:56:05;;;;;;;16.25;15.25;;;;;;;;;;5012011;28;20033;-53
2023/04/06 13:58:30;;;;;;;16.65;15.55;;;;;;;;;;5012211;28;20041;-52
2023/04/06 14:01:09;;;;;;;16.85;15.75;;;;;;;;;;5010560;28;20055;-51
2023/04/06 14:03:35;;;;;;;16.17;15.20;;;;;;;;;;5011481;28;20136;-53
2023/04/06 14:06:00;;;;;;;16.30;15.30;;;;;;;;;;5014412;28;20444;-50
2023/04/06 14:08:25;;;;;;;17.63;16.58;;;;;;;;;;5013545;28;20042;-51
2023/04/06 14:10:51;;;;;;;17.42;16.33;;;;;;;;;;5009369;28;20105;-51
2023/04/06 14:13:17;;;;;;;16.98;15.88;;;;;;;;;;5008099;28;20045;-51
2023/04/06 14:15:42;;;;;;;15.68;14.68;;;;;;;;;;5012686;28;20071;-53
2023/04/06 14:18:08;;;;;;;17.27;16.17;;;;;;;;;;5012470;28;20072;-50
2023/04/06 14:20:34;;;;;;;16.27;15.38;;;;;;;;;;5013997;28;20448;-49
2023/04/06 14:23:01;;;;;;;17.75;16.75;;;;;;;;;;5015474;28;20484;-51